Time,TemperatureF,DewpointF,PressureIn,WindDirection,WindDirectionDegrees,WindSpeedMPH,WindSpeedGustMPH,Humidity,HourlyPrecipIn,Conditions,Clouds,dailyrainin,SoftwareType,DateUTC
2013-02-01 00:00:00,43.8,43.0,30.22,SW,217,0.0,0.0,95,0.00,,,0.01,weatherlink.com 1.10,2013-02-01 08:00:00,
2013-02-01 00:15:00,43.3,42.0,30.23,SW,217,0.0,0.0,95,0.00,,,0.00,weatherlink.com 1.10,2013-02-01 08:15:00,
2013-02-01 00:31:00,43.1,42.0,30.22,SW,217,0.0,0.0,95,0.00,,,0.00,weatherlink.com 1.10,2013-02-01 08:31:00,
2013-02-01 00:46:00,42.9,42.0,30.22,SW,217,0.0,0.0,95,0.00,,,0.00,weatherlink.com 1.10,2013-02-01 08:46:00,
2013-02-01 01:00:00,42.9,42.0,30.23,SW,217,0.0,0.0,95,0.00,,,0.00,weatherlink.com 1.10,2013-02-01 09:00:00,
2013-02-01 01:16:00,43.2,42.0,30.22,SW,217,0.0,0.0,95,0.00,,,0.00,weatherlink.com 1.10,2013-02-01 09:16:00,
2013-02-01 01:30:00,42.7,41.0,30.22,SW,217,0.0,0.0,95,0.00,,,0.00,weatherlink.com 1.10,2013-02-01 09:30:00,
2013-02-01 01:46:00,42.6,41.0,30.22,SW,217,0.0,0.0,95,0.00,,,0.00,weatherlink.com 1.10,2013-02-01 09:46:00,
2013-02-01 02:01:00,42.4,41.0,30.22,SW,217,0.0,0.0,95,0.00,,,0.00,weatherlink.com 1.10,2013-02-01 10:01:00,
2013-02-01 02:16:00,42.2,41.0,30.22,SW,217,0.0,0.0,95,0.00,,,0.00,weatherlink.com 1.10,2013-02-01 10:16:00,
2013-02-01 02:31:00,41.7,40.0,30.21,SW,217,0.0,0.0,95,0.00,,,0.00,weatherlink.com 1.10,2013-02-01 10:31:00,
2013-02-01 02:46:00,41.5,40.0,30.22,SW,217,0.0,0.0,95,0.00,,,0.00,weatherlink.com 1.10,2013-02-01 10:46:00,
2013-02-01 03:01:00,41.5,40.0,30.22,SW,217,0.0,0.0,95,0.00,,,0.00,weatherlink.com 1.10,2013-02-01 11:01:00,
2013-02-01 03:16:00,41.3,40.0,30.21,SW,217,0.0,0.0,96,0.00,,,0.00,weatherlink.com 1.10,2013-02-01 11:16:00,
2013-02-01 03:31:00,40.8,40.0,30.21,SW,217,0.0,0.0,95,0.00,,,0.00,weatherlink.com 1.10,2013-02-01 11:31:00,
2013-02-01 03:46:00,41.0,40.0,30.21,SW,217,0.0,0.0,96,0.00,,,0.00,weatherlink.com 1.10,2013-02-01 11:46:00,
2013-02-01 04:01:00,41.2,40.0,30.20,SW,217,0.0,0.0,96,0.00,,,0.00,weatherlink.com 1.10,2013-02-01 12:01:00,
2013-02-01 04:16:00,41.2,40.0,30.21,SE,131,0.0,0.0,96,0.00,,,0.00,weatherlink.com 1.10,2013-02-01 12:16:00,
2013-02-01 04:31:00,41.0,40.0,30.21,SE,131,0.0,0.0,96,0.00,,,0.00,weatherlink.com 1.10,2013-02-01 12:31:00,
2013-02-01 04:46:00,40.9,40.0,30.21,SE,131,0.0,0.0,96,0.00,,,0.00,weatherlink.com 1.10,2013-02-01 12:46:00,
2013-02-01 05:02:00,40.9,40.0,30.21,SE,131,0.0,0.0,96,0.01,,,0.01,weatherlink.com 1.10,2013-02-01 13:02:00,
2013-02-01 05:16:00,40.7,40.0,30.20,SE,131,0.0,0.0,96,0.01,,,0.01,weatherlink.com 1.10,2013-02-01 13:16:00,
2013-02-01 05:31:00,40.4,39.0,30.21,SE,131,0.0,0.0,95,0.01,,,0.01,weatherlink.com 1.10,2013-02-01 13:31:00,
2013-02-01 05:46:00,40.2,39.0,30.21,SE,131,0.0,0.0,95,0.01,,,0.01,weatherlink.com 1.10,2013-02-01 13:46:00,
2013-02-01 06:01:00,39.7,38.0,30.21,SE,131,0.0,0.0,95,0.00,,,0.01,weatherlink.com 1.10,2013-02-01 14:01:00,
2013-02-01 06:16:00,39.6,38.0,30.21,SE,131,0.0,0.0,95,0.00,,,0.01,weatherlink.com 1.10,2013-02-01 14:16:00,
2013-02-01 06:31:00,39.3,38.0,30.21,SE,131,0.0,0.0,95,0.00,,,0.01,weatherlink.com 1.10,2013-02-01 14:31:00,
2013-02-01 06:46:00,39.5,38.0,30.22,SE,131,0.0,0.0,95,0.00,,,0.01,weatherlink.com 1.10,2013-02-01 14:46:00,
2013-02-01 07:02:00,39.6,38.0,30.22,SE,131,0.0,0.0,95,0.00,,,0.01,weatherlink.com 1.10,2013-02-01 15:02:00,
2013-02-01 07:16:00,39.5,38.0,30.22,SE,131,0.0,0.0,95,0.00,,,0.01,weatherlink.com 1.10,2013-02-01 15:16:00,
2013-02-01 07:31:00,40.1,39.0,30.22,SE,131,0.0,0.0,96,0.00,,,0.01,weatherlink.com 1.10,2013-02-01 15:31:00,
2013-02-01 07:46:00,40.1,39.0,30.22,South,175,0.0,0.0,95,0.00,,,0.01,weatherlink.com 1.10,2013-02-01 15:46:00,
2013-02-01 08:01:00,40.4,39.0,30.22,South,175,0.0,0.0,95,0.00,,,0.01,weatherlink.com 1.10,2013-02-01 16:01:00,
2013-02-01 08:16:00,41.4,40.0,30.22,South,175,0.0,0.0,95,0.00,,,0.01,weatherlink.com 1.10,2013-02-01 16:16:00,
2013-02-01 08:31:00,43.4,42.0,30.22,South,175,0.0,0.0,94,0.00,,,0.01,weatherlink.com 1.10,2013-02-01 16:31:00,
2013-02-01 08:46:00,47.6,44.0,30.23,SSW,192,0.0,2.0,86,0.00,,,0.01,weatherlink.com 1.10,2013-02-01 16:46:00,
2013-02-01 09:02:00,49.2,44.0,30.23,SSE,155,0.0,2.0,83,0.00,,,0.01,weatherlink.com 1.10,2013-02-01 17:02:00,
2013-02-01 09:17:00,52.2,43.0,30.22,NW,312,1.0,3.0,71,0.00,,,0.01,weatherlink.com 1.10,2013-02-01 17:17:00,
2013-02-01 09:32:00,53.8,43.0,30.22,NW,325,0.0,1.0,67,0.00,,,0.01,weatherlink.com 1.10,2013-02-01 17:32:00,
2013-02-01 09:47:00,55.7,41.0,30.21,South,174,0.0,2.0,59,0.00,,,0.01,weatherlink.com 1.10,2013-02-01 17:47:00,
2013-02-01 10:02:00,57.4,43.0,30.22,SSW,199,1.0,2.0,60,0.00,,,0.01,weatherlink.com 1.10,2013-02-01 18:02:00,
2013-02-01 10:17:00,59.0,42.0,30.22,ESE,104,0.0,5.0,53,0.00,,,0.01,weatherlink.com 1.10,2013-02-01 18:17:00,
2013-02-01 10:32:00,59.6,42.0,30.22,ENE,69,1.0,5.0,52,0.00,,,0.01,weatherlink.com 1.10,2013-02-01 18:32:00,
2013-02-01 10:47:00,59.6,43.0,30.22,SW,227,0.0,4.0,54,0.00,,,0.01,weatherlink.com 1.10,2013-02-01 18:47:00,
2013-02-01 11:02:00,60.8,43.0,30.22,East,82,0.0,5.0,52,0.00,,,0.01,weatherlink.com 1.10,2013-02-01 19:02:00,
2013-02-01 11:17:00,61.3,41.0,30.23,ENE,68,0.0,7.0,47,0.00,,,0.01,weatherlink.com 1.10,2013-02-01 19:17:00,
2013-02-01 11:32:00,61.4,41.0,30.22,East,80,0.0,5.0,48,0.00,,,0.01,weatherlink.com 1.10,2013-02-01 19:32:00,
2013-02-01 11:47:00,62.2,42.0,30.22,South,186,1.0,4.0,48,0.00,,,0.01,weatherlink.com 1.10,2013-02-01 19:47:00,
2013-02-01 12:02:00,62.6,41.0,30.21,ESE,107,0.0,3.0,46,0.00,,,0.01,weatherlink.com 1.10,2013-02-01 20:02:00,
2013-02-01 12:17:00,63.1,42.0,30.20,East,81,2.0,8.0,46,0.00,,,0.01,weatherlink.com 1.10,2013-02-01 20:17:00,
2013-02-01 12:32:00,63.0,41.0,30.19,East,99,3.0,4.0,44,0.00,,,0.01,weatherlink.com 1.10,2013-02-01 20:32:00,
2013-02-01 12:47:00,63.8,42.0,30.19,ENE,76,0.0,5.0,45,0.00,,,0.01,weatherlink.com 1.10,2013-02-01 20:47:00,
2013-02-01 13:03:00,64.3,41.0,30.18,East,85,3.0,6.0,42,0.00,,,0.01,weatherlink.com 1.10,2013-02-01 21:03:00,
2013-02-01 13:17:00,64.6,40.0,30.18,NW,322,1.0,8.0,40,0.00,,,0.01,weatherlink.com 1.10,2013-02-01 21:17:00,
2013-02-01 13:32:00,64.9,42.0,30.17,East,89,0.0,3.0,43,0.00,,,0.01,weatherlink.com 1.10,2013-02-01 21:32:00,
2013-02-01 13:47:00,64.6,40.0,30.17,ENE,76,2.0,5.0,41,0.00,,,0.01,weatherlink.com 1.10,2013-02-01 21:47:00,
2013-02-01 14:03:00,64.4,41.0,30.17,SW,233,1.0,10.0,42,0.00,,,0.01,weatherlink.com 1.10,2013-02-01 22:03:00,
2013-02-01 14:17:00,64.9,42.0,30.17,SSE,153,0.0,5.0,43,0.00,,,0.01,weatherlink.com 1.10,2013-02-01 22:17:00,
2013-02-01 14:33:00,65.1,42.0,30.16,NE,56,0.0,2.0,44,0.00,,,0.01,weatherlink.com 1.10,2013-02-01 22:33:00,
2013-02-01 14:48:00,63.0,43.0,30.17,NE,56,0.0,2.0,49,0.00,,,0.01,weatherlink.com 1.10,2013-02-01 22:48:00,
2013-02-01 15:03:00,61.7,42.0,30.16,NW,304,1.0,4.0,49,0.00,,,0.01,weatherlink.com 1.10,2013-02-01 23:03:00,
2013-02-01 15:17:00,60.4,42.0,30.16,WSW,244,0.0,2.0,52,0.00,,,0.01,weatherlink.com 1.10,2013-02-01 23:17:00,
2013-02-01 15:32:00,59.7,43.0,30.16,SW,219,0.0,2.0,55,0.00,,,0.01,weatherlink.com 1.10,2013-02-01 23:32:00,
2013-02-01 15:47:00,59.3,44.0,30.16,WSW,258,2.0,2.0,58,0.00,,,0.01,weatherlink.com 1.10,2013-02-01 23:47:00,
2013-02-01 16:02:00,57.9,43.0,30.16,West,274,1.0,2.0,59,0.00,,,0.01,weatherlink.com 1.10,2013-02-02 00:02:00,
2013-02-01 16:18:00,57.4,44.0,30.15,West,274,0.0,2.0,62,0.00,,,0.01,weatherlink.com 1.10,2013-02-02 00:18:00,
2013-02-01 16:33:00,57.3,44.0,30.16,West,267,0.0,3.0,62,0.00,,,0.01,weatherlink.com 1.10,2013-02-02 00:33:00,
2013-02-01 16:48:00,56.4,44.0,30.15,West,267,0.0,1.0,64,0.00,,,0.01,weatherlink.com 1.10,2013-02-02 00:48:00,
2013-02-01 17:03:00,56.1,44.0,30.16,West,267,0.0,1.0,65,0.00,,,0.01,weatherlink.com 1.10,2013-02-02 01:03:00,
2013-02-01 17:18:00,55.4,44.0,30.16,West,267,0.0,0.0,66,0.00,,,0.01,weatherlink.com 1.10,2013-02-02 01:18:00,
2013-02-01 17:33:00,54.4,44.0,30.16,West,267,0.0,0.0,68,0.00,,,0.01,weatherlink.com 1.10,2013-02-02 01:33:00,
2013-02-01 17:48:00,53.4,44.0,30.17,West,267,0.0,0.0,71,0.00,,,0.01,weatherlink.com 1.10,2013-02-02 01:48:00,
2013-02-01 18:03:00,52.6,44.0,30.18,West,267,0.0,0.0,72,0.00,,,0.01,weatherlink.com 1.10,2013-02-02 02:03:00,
2013-02-01 18:18:00,51.9,43.0,30.19,West,267,0.0,0.0,73,0.00,,,0.01,weatherlink.com 1.10,2013-02-02 02:18:00,
2013-02-01 18:33:00,51.9,45.0,30.19,West,266,0.0,0.0,78,0.00,,,0.01,weatherlink.com 1.10,2013-02-02 02:33:00,
2013-02-01 18:48:00,51.5,46.0,30.20,West,266,0.0,0.0,80,0.00,,,0.01,weatherlink.com 1.10,2013-02-02 02:48:00,
2013-02-01 19:03:00,50.9,45.0,30.20,West,266,0.0,0.0,80,0.00,,,0.01,weatherlink.com 1.10,2013-02-02 03:03:00,
2013-02-01 19:18:00,50.4,44.0,30.22,West,266,0.0,0.0,80,0.00,,,0.01,weatherlink.com 1.10,2013-02-02 03:18:00,
2013-02-01 19:33:00,49.7,44.0,30.22,West,266,0.0,0.0,81,0.00,,,0.01,weatherlink.com 1.10,2013-02-02 03:33:00,
2013-02-01 19:48:00,49.0,43.0,30.22,West,267,0.0,0.0,81,0.00,,,0.01,weatherlink.com 1.10,2013-02-02 03:48:00,
2013-02-01 20:03:00,48.2,43.0,30.21,West,267,0.0,0.0,82,0.00,,,0.01,weatherlink.com 1.10,2013-02-02 04:03:00,
2013-02-01 20:18:00,47.5,43.0,30.22,West,267,0.0,0.0,84,0.00,,,0.01,weatherlink.com 1.10,2013-02-02 04:18:00,
2013-02-01 20:33:00,46.8,43.0,30.22,West,267,0.0,0.0,85,0.00,,,0.01,weatherlink.com 1.10,2013-02-02 04:33:00,
2013-02-01 20:48:00,46.3,42.0,30.22,West,267,0.0,0.0,86,0.00,,,0.01,weatherlink.com 1.10,2013-02-02 04:48:00,
2013-02-01 21:03:00,46.2,43.0,30.21,West,267,0.0,0.0,87,0.00,,,0.01,weatherlink.com 1.10,2013-02-02 05:03:00,
2013-02-01 21:18:00,46.3,43.0,30.22,West,267,0.0,0.0,88,0.00,,,0.01,weatherlink.com 1.10,2013-02-02 05:18:00,
2013-02-01 21:33:00,45.9,43.0,30.23,West,267,0.0,0.0,89,0.00,,,0.01,weatherlink.com 1.10,2013-02-02 05:33:00,
2013-02-01 21:48:00,45.7,43.0,30.23,West,267,0.0,0.0,89,0.00,,,0.01,weatherlink.com 1.10,2013-02-02 05:48:00,
2013-02-01 22:03:00,46.0,44.0,30.23,West,267,0.0,0.0,91,0.00,,,0.01,weatherlink.com 1.10,2013-02-02 06:03:00,
2013-02-01 22:18:00,46.0,44.0,30.23,West,267,0.0,0.0,91,0.00,,,0.01,weatherlink.com 1.10,2013-02-02 06:18:00,
2013-02-01 22:33:00,46.1,44.0,30.23,West,267,1.0,2.0,91,0.00,,,0.01,weatherlink.com 1.10,2013-02-02 06:33:00,
2013-02-01 22:48:00,46.1,43.0,30.23,West,265,0.0,1.0,89,0.00,,,0.01,weatherlink.com 1.10,2013-02-02 06:48:00,
2013-02-01 23:03:00,45.8,43.0,30.22,West,265,0.0,1.0,89,0.00,,,0.01,weatherlink.com 1.10,2013-02-02 07:03:00,
2013-02-01 23:18:00,45.9,43.0,30.24,West,265,0.0,1.0,88,0.00,,,0.01,weatherlink.com 1.10,2013-02-02 07:18:00,
2013-02-01 23:33:00,45.6,42.0,30.24,West,265,1.0,1.0,88,0.00,,,0.01,weatherlink.com 1.10,2013-02-02 07:33:00,
2013-02-01 23:48:00,45.1,42.0,30.24,West,263,0.0,1.0,87,0.00,,,0.01,weatherlink.com 1.10,2013-02-02 07:48:00,